sensor_id;sensor_type;location;lat;lon;timestamp;temperature;humidity
11577;DHT22;5844;51.496;6.788;2024-02-14T00:01:34;8.80;1.00
11577;DHT22;5844;51.496;6.788;2024-02-14T00:04:02;8.70;1.00
11577;DHT22;5844;51.496;6.788;2024-02-14T00:06:28;8.60;1.00
11577;DHT22;5844;51.496;6.788;2024-02-14T00:08:54;8.60;1.00
11577;DHT22;5844;51.496;6.788;2024-02-14T00:11:19;8.50;1.00
11577;DHT22;5844;51.496;6.788;2024-02-14T00:13:45;8.40;1.00
11577;DHT22;5844;51.496;6.788;2024-02-14T00:16:10;8.30;1.00
11577;DHT22;5844;51.496;6.788;2024-02-14T00:18:36;8.30;1.00
11577;DHT22;5844;51.496;6.788;2024-02-14T00:21:02;8.30;1.00
11577;DHT22;5844;51.496;6.788;2024-02-14T00:23:27;8.30;1.00
11577;DHT22;5844;51.496;6.788;2024-02-14T00:25:53;8.20;1.00
11577;DHT22;5844;51.496;6.788;2024-02-14T00:28:19;8.20;1.00
11577;DHT22;5844;51.496;6.788;2024-02-14T00:30:44;8.20;1.00
11577;DHT22;5844;51.496;6.788;2024-02-14T00:33:10;8.20;1.00
11577;DHT22;5844;51.496;6.788;2024-02-14T00:35:36;8.70;1.00
11577;DHT22;5844;51.496;6.788;2024-02-14T00:38:01;8.20;1.00
11577;DHT22;5844;51.496;6.788;2024-02-14T00:40:27;8.30;1.00
11577;DHT22;5844;51.496;6.788;2024-02-14T00:42:52;8.30;1.00
11577;DHT22;5844;51.496;6.788;2024-02-14T00:45:18;8.30;1.00
11577;DHT22;5844;51.496;6.788;2024-02-14T00:47:44;8.80;1.00
11577;DHT22;5844;51.496;6.788;2024-02-14T00:50:10;8.30;1.00
11577;DHT22;5844;51.496;6.788;2024-02-14T00:52:35;8.20;1.00
11577;DHT22;5844;51.496;6.788;2024-02-14T00:55:01;8.20;1.00
11577;DHT22;5844;51.496;6.788;2024-02-14T00:57:29;8.20;1.00
11577;DHT22;5844;51.496;6.788;2024-02-14T00:59:56;8.20;1.00
11577;DHT22;5844;51.496;6.788;2024-02-14T01:02:25;8.20;1.00
11577;DHT22;5844;51.496;6.788;2024-02-14T01:04:51;8.20;1.00
11577;DHT22;5844;51.496;6.788;2024-02-14T01:07:17;8.10;1.00
11577;DHT22;5844;51.496;6.788;2024-02-14T01:09:43;8.20;1.00
11577;DHT22;5844;51.496;6.788;2024-02-14T01:12:08;8.30;1.00
11577;DHT22;5844;51.496;6.788;2024-02-14T01:14:34;8.20;1.00
11577;DHT22;5844;51.496;6.788;2024-02-14T01:17:00;8.30;1.00
11577;DHT22;5844;51.496;6.788;2024-02-14T01:19:25;8.30;1.00
11577;DHT22;5844;51.496;6.788;2024-02-14T01:21:54;8.30;1.00
11577;DHT22;5844;51.496;6.788;2024-02-14T01:24:20;8.30;1.00
11577;DHT22;5844;51.496;6.788;2024-02-14T01:26:56;8.40;1.00
11577;DHT22;5844;51.496;6.788;2024-02-14T01:29:22;8.40;1.00
11577;DHT22;5844;51.496;6.788;2024-02-14T01:31:48;8.40;1.00
11577;DHT22;5844;51.496;6.788;2024-02-14T01:34:15;8.50;1.00
11577;DHT22;5844;51.496;6.788;2024-02-14T01:36:43;8.50;1.00
11577;DHT22;5844;51.496;6.788;2024-02-14T01:39:09;8.60;1.00
11577;DHT22;5844;51.496;6.788;2024-02-14T01:41:47;8.50;1.00
11577;DHT22;5844;51.496;6.788;2024-02-14T01:44:14;8.60;1.00
11577;DHT22;5844;51.496;6.788;2024-02-14T01:46:41;8.60;1.00
11577;DHT22;5844;51.496;6.788;2024-02-14T01:49:08;8.80;1.00
11577;DHT22;5844;51.496;6.788;2024-02-14T01:51:35;9.00;1.00
11577;DHT22;5844;51.496;6.788;2024-02-14T01:54:02;8.60;1.00
11577;DHT22;5844;51.496;6.788;2024-02-14T01:56:29;8.70;1.00
11577;DHT22;5844;51.496;6.788;2024-02-14T01:58:56;8.70;1.00
11577;DHT22;5844;51.496;6.788;2024-02-14T02:01:22;8.80;1.00
11577;DHT22;5844;51.496;6.788;2024-02-14T02:03:49;8.90;1.00
11577;DHT22;5844;51.496;6.788;2024-02-14T02:06:15;8.90;1.00
11577;DHT22;5844;51.496;6.788;2024-02-14T02:08:44;8.90;1.00
11577;DHT22;5844;51.496;6.788;2024-02-14T02:11:10;9.00;1.00
11577;DHT22;5844;51.496;6.788;2024-02-14T02:13:36;9.00;1.00
11577;DHT22;5844;51.496;6.788;2024-02-14T02:16:05;9.00;1.00
11577;DHT22;5844;51.496;6.788;2024-02-14T02:18:32;9.10;1.00
11577;DHT22;5844;51.496;6.788;2024-02-14T02:20:58;9.10;1.00
11577;DHT22;5844;51.496;6.788;2024-02-14T02:23:23;9.20;1.00
11577;DHT22;5844;51.496;6.788;2024-02-14T02:25:49;9.20;1.00
11577;DHT22;5844;51.496;6.788;2024-02-14T02:28:16;9.30;1.00
11577;DHT22;5844;51.496;6.788;2024-02-14T02:30:42;9.30;1.00
11577;DHT22;5844;51.496;6.788;2024-02-14T02:33:08;9.40;1.00
11577;DHT22;5844;51.496;6.788;2024-02-14T02:35:34;9.50;1.00
11577;DHT22;5844;51.496;6.788;2024-02-14T02:38:00;9.50;1.00
11577;DHT22;5844;51.496;6.788;2024-02-14T02:40:26;9.50;1.00
11577;DHT22;5844;51.496;6.788;2024-02-14T02:42:54;9.50;1.00
11577;DHT22;5844;51.496;6.788;2024-02-14T02:45:20;9.60;1.00
11577;DHT22;5844;51.496;6.788;2024-02-14T02:47:46;9.70;1.00
11577;DHT22;5844;51.496;6.788;2024-02-14T02:50:13;9.70;1.00
11577;DHT22;5844;51.496;6.788;2024-02-14T02:52:39;9.80;1.00
11577;DHT22;5844;51.496;6.788;2024-02-14T02:55:07;9.80;1.00
11577;DHT22;5844;51.496;6.788;2024-02-14T02:57:32;9.80;1.00
11577;DHT22;5844;51.496;6.788;2024-02-14T02:59:59;9.90;1.00
11577;DHT22;5844;51.496;6.788;2024-02-14T03:02:25;9.90;1.00
11577;DHT22;5844;51.496;6.788;2024-02-14T03:04:51;9.90;1.00
11577;DHT22;5844;51.496;6.788;2024-02-14T03:07:21;9.90;1.00
11577;DHT22;5844;51.496;6.788;2024-02-14T03:09:48;9.90;1.00
11577;DHT22;5844;51.496;6.788;2024-02-14T03:12:14;10.00;1.00
11577;DHT22;5844;51.496;6.788;2024-02-14T03:14:41;10.00;1.00
11577;DHT22;5844;51.496;6.788;2024-02-14T03:17:09;10.00;1.00
11577;DHT22;5844;51.496;6.788;2024-02-14T03:19:35;10.00;1.00
11577;DHT22;5844;51.496;6.788;2024-02-14T03:22:04;10.10;1.00
11577;DHT22;5844;51.496;6.788;2024-02-14T03:24:34;10.10;1.00
11577;DHT22;5844;51.496;6.788;2024-02-14T03:27:02;10.10;1.00
11577;DHT22;5844;51.496;6.788;2024-02-14T03:29:29;10.10;1.00
11577;DHT22;5844;51.496;6.788;2024-02-14T03:31:55;10.00;1.00
11577;DHT22;5844;51.496;6.788;2024-02-14T03:34:24;9.80;1.00
11577;DHT22;5844;51.496;6.788;2024-02-14T03:36:50;9.80;1.00
11577;DHT22;5844;51.496;6.788;2024-02-14T03:39:16;9.70;1.00
11577;DHT22;5844;51.496;6.788;2024-02-14T03:41:42;9.70;1.00
11577;DHT22;5844;51.496;6.788;2024-02-14T03:44:08;9.70;1.00
11577;DHT22;5844;51.496;6.788;2024-02-14T03:46:37;9.70;1.00
11577;DHT22;5844;51.496;6.788;2024-02-14T03:49:03;9.80;1.00
11577;DHT22;5844;51.496;6.788;2024-02-14T03:51:29;9.80;1.00
11577;DHT22;5844;51.496;6.788;2024-02-14T03:53:55;9.90;1.00
11577;DHT22;5844;51.496;6.788;2024-02-14T03:56:20;9.90;1.00
11577;DHT22;5844;51.496;6.788;2024-02-14T03:58:46;9.90;1.00
11577;DHT22;5844;51.496;6.788;2024-02-14T04:01:12;9.90;1.00
11577;DHT22;5844;51.496;6.788;2024-02-14T04:03:38;9.90;1.00
11577;DHT22;5844;51.496;6.788;2024-02-14T04:06:04;10.00;1.00
11577;DHT22;5844;51.496;6.788;2024-02-14T04:08:29;10.00;1.00
11577;DHT22;5844;51.496;6.788;2024-02-14T04:10:55;10.00;1.00
11577;DHT22;5844;51.496;6.788;2024-02-14T04:13:22;10.00;1.00
11577;DHT22;5844;51.496;6.788;2024-02-14T04:15:47;10.00;1.00
11577;DHT22;5844;51.496;6.788;2024-02-14T04:18:13;10.00;1.00
11577;DHT22;5844;51.496;6.788;2024-02-14T04:20:44;10.10;1.00
11577;DHT22;5844;51.496;6.788;2024-02-14T04:23:09;10.10;1.00
11577;DHT22;5844;51.496;6.788;2024-02-14T04:25:36;10.10;1.00
11577;DHT22;5844;51.496;6.788;2024-02-14T04:28:03;10.10;1.00
11577;DHT22;5844;51.496;6.788;2024-02-14T04:30:28;10.20;1.00
11577;DHT22;5844;51.496;6.788;2024-02-14T04:32:55;10.30;1.00
11577;DHT22;5844;51.496;6.788;2024-02-14T04:35:20;10.30;1.00
11577;DHT22;5844;51.496;6.788;2024-02-14T04:37:46;10.30;1.00
11577;DHT22;5844;51.496;6.788;2024-02-14T04:40:14;10.40;1.00
11577;DHT22;5844;51.496;6.788;2024-02-14T04:42:43;10.40;1.00
11577;DHT22;5844;51.496;6.788;2024-02-14T04:45:09;10.40;1.00
11577;DHT22;5844;51.496;6.788;2024-02-14T04:47:35;10.40;1.00
11577;DHT22;5844;51.496;6.788;2024-02-14T04:50:01;10.40;1.00
11577;DHT22;5844;51.496;6.788;2024-02-14T04:52:29;10.40;1.00
11577;DHT22;5844;51.496;6.788;2024-02-14T04:54:55;10.40;1.00
11577;DHT22;5844;51.496;6.788;2024-02-14T04:57:22;10.50;1.00
11577;DHT22;5844;51.496;6.788;2024-02-14T04:59:48;10.40;1.00
11577;DHT22;5844;51.496;6.788;2024-02-14T05:02:13;10.40;1.00
11577;DHT22;5844;51.496;6.788;2024-02-14T05:04:39;10.40;1.00
11577;DHT22;5844;51.496;6.788;2024-02-14T05:07:05;10.50;1.00
11577;DHT22;5844;51.496;6.788;2024-02-14T05:09:30;10.50;1.00
11577;DHT22;5844;51.496;6.788;2024-02-14T05:11:56;10.40;1.00
11577;DHT22;5844;51.496;6.788;2024-02-14T05:14:22;10.50;1.00
11577;DHT22;5844;51.496;6.788;2024-02-14T05:16:48;10.50;1.00
11577;DHT22;5844;51.496;6.788;2024-02-14T05:19:14;10.50;1.00
11577;DHT22;5844;51.496;6.788;2024-02-14T05:21:40;10.40;1.00
11577;DHT22;5844;51.496;6.788;2024-02-14T05:24:05;10.40;1.00
11577;DHT22;5844;51.496;6.788;2024-02-14T05:26:32;10.50;1.00
11577;DHT22;5844;51.496;6.788;2024-02-14T05:28:57;10.50;1.00
11577;DHT22;5844;51.496;6.788;2024-02-14T05:31:24;10.50;1.00
11577;DHT22;5844;51.496;6.788;2024-02-14T05:33:50;10.50;1.00
11577;DHT22;5844;51.496;6.788;2024-02-14T05:36:16;10.50;1.00
11577;DHT22;5844;51.496;6.788;2024-02-14T05:38:42;10.50;1.00
11577;DHT22;5844;51.496;6.788;2024-02-14T05:41:08;10.50;1.00
11577;DHT22;5844;51.496;6.788;2024-02-14T05:43:34;10.50;1.00
11577;DHT22;5844;51.496;6.788;2024-02-14T05:46:00;10.40;1.00
11577;DHT22;5844;51.496;6.788;2024-02-14T05:48:25;10.40;1.00
11577;DHT22;5844;51.496;6.788;2024-02-14T05:50:51;10.40;1.00
11577;DHT22;5844;51.496;6.788;2024-02-14T05:53:17;10.40;1.00
11577;DHT22;5844;51.496;6.788;2024-02-14T05:55:43;10.30;1.00
11577;DHT22;5844;51.496;6.788;2024-02-14T05:58:09;10.30;1.00
11577;DHT22;5844;51.496;6.788;2024-02-14T06:00:34;10.30;1.00
11577;DHT22;5844;51.496;6.788;2024-02-14T06:03:00;10.30;1.00
11577;DHT22;5844;51.496;6.788;2024-02-14T06:05:26;10.30;1.00
11577;DHT22;5844;51.496;6.788;2024-02-14T06:07:51;10.40;1.00
11577;DHT22;5844;51.496;6.788;2024-02-14T06:10:18;10.40;1.00
11577;DHT22;5844;51.496;6.788;2024-02-14T06:12:44;10.40;1.00
11577;DHT22;5844;51.496;6.788;2024-02-14T06:15:10;10.40;1.00
11577;DHT22;5844;51.496;6.788;2024-02-14T06:17:35;10.40;1.00
11577;DHT22;5844;51.496;6.788;2024-02-14T06:20:01;10.40;1.00
11577;DHT22;5844;51.496;6.788;2024-02-14T06:22:32;10.40;1.00
11577;DHT22;5844;51.496;6.788;2024-02-14T06:24:59;10.40;1.00
11577;DHT22;5844;51.496;6.788;2024-02-14T06:27:25;10.30;1.00
11577;DHT22;5844;51.496;6.788;2024-02-14T06:29:51;10.20;1.00
11577;DHT22;5844;51.496;6.788;2024-02-14T06:32:18;10.20;1.00
11577;DHT22;5844;51.496;6.788;2024-02-14T06:34:44;10.20;1.00
11577;DHT22;5844;51.496;6.788;2024-02-14T06:37:09;10.20;1.00
11577;DHT22;5844;51.496;6.788;2024-02-14T06:39:35;10.20;1.00
11577;DHT22;5844;51.496;6.788;2024-02-14T06:42:01;10.10;1.00
11577;DHT22;5844;51.496;6.788;2024-02-14T06:44:27;10.20;1.00
11577;DHT22;5844;51.496;6.788;2024-02-14T06:46:52;10.30;1.00
11577;DHT22;5844;51.496;6.788;2024-02-14T06:49:18;10.30;1.00
11577;DHT22;5844;51.496;6.788;2024-02-14T06:51:44;10.30;1.00
11577;DHT22;5844;51.496;6.788;2024-02-14T06:54:10;10.30;1.00
11577;DHT22;5844;51.496;6.788;2024-02-14T06:56:38;10.30;1.00
11577;DHT22;5844;51.496;6.788;2024-02-14T06:59:04;10.40;1.00
11577;DHT22;5844;51.496;6.788;2024-02-14T07:01:30;10.40;1.00
11577;DHT22;5844;51.496;6.788;2024-02-14T07:03:55;10.40;1.00
11577;DHT22;5844;51.496;6.788;2024-02-14T07:06:21;10.40;1.00
11577;DHT22;5844;51.496;6.788;2024-02-14T07:08:47;10.40;1.00
11577;DHT22;5844;51.496;6.788;2024-02-14T07:11:14;10.40;1.00
11577;DHT22;5844;51.496;6.788;2024-02-14T07:13:41;10.30;1.00
11577;DHT22;5844;51.496;6.788;2024-02-14T07:16:07;10.30;1.00
11577;DHT22;5844;51.496;6.788;2024-02-14T07:18:33;10.30;1.00
11577;DHT22;5844;51.496;6.788;2024-02-14T07:20:59;10.40;1.00
11577;DHT22;5844;51.496;6.788;2024-02-14T07:23:25;10.40;1.00
11577;DHT22;5844;51.496;6.788;2024-02-14T07:25:51;10.40;1.00
11577;DHT22;5844;51.496;6.788;2024-02-14T07:28:17;10.40;1.00
11577;DHT22;5844;51.496;6.788;2024-02-14T07:30:43;10.40;1.00
11577;DHT22;5844;51.496;6.788;2024-02-14T07:33:09;10.40;1.00
11577;DHT22;5844;51.496;6.788;2024-02-14T07:35:36;10.40;1.00
11577;DHT22;5844;51.496;6.788;2024-02-14T07:38:03;10.40;1.00
11577;DHT22;5844;51.496;6.788;2024-02-14T07:40:28;10.30;1.00
11577;DHT22;5844;51.496;6.788;2024-02-14T07:42:57;10.40;1.00
11577;DHT22;5844;51.496;6.788;2024-02-14T07:45:22;10.40;1.00
11577;DHT22;5844;51.496;6.788;2024-02-14T07:47:49;10.40;1.00
11577;DHT22;5844;51.496;6.788;2024-02-14T07:50:15;10.40;1.00
11577;DHT22;5844;51.496;6.788;2024-02-14T07:52:45;10.40;1.00
11577;DHT22;5844;51.496;6.788;2024-02-14T07:55:11;10.40;1.00
11577;DHT22;5844;51.496;6.788;2024-02-14T07:57:40;10.40;9.70
11577;DHT22;5844;51.496;6.788;2024-02-14T08:00:06;10.50;1.00
11577;DHT22;5844;51.496;6.788;2024-02-14T08:02:36;10.50;1.00
11577;DHT22;5844;51.496;6.788;2024-02-14T08:05:02;10.60;1.00
11577;DHT22;5844;51.496;6.788;2024-02-14T08:07:30;11.00;1.00
11577;DHT22;5844;51.496;6.788;2024-02-14T08:09:56;10.70;1.00
11577;DHT22;5844;51.496;6.788;2024-02-14T08:12:21;10.70;1.00
11577;DHT22;5844;51.496;6.788;2024-02-14T08:14:48;10.70;1.00
11577;DHT22;5844;51.496;6.788;2024-02-14T08:17:14;10.80;1.00
11577;DHT22;5844;51.496;6.788;2024-02-14T08:19:39;10.90;1.00
11577;DHT22;5844;51.496;6.788;2024-02-14T08:22:05;11.00;1.00
11577;DHT22;5844;51.496;6.788;2024-02-14T08:24:32;11.10;1.00
11577;DHT22;5844;51.496;6.788;2024-02-14T08:27:06;11.10;1.00
11577;DHT22;5844;51.496;6.788;2024-02-14T08:29:32;11.10;1.00
11577;DHT22;5844;51.496;6.788;2024-02-14T08:31:57;11.10;1.00
11577;DHT22;5844;51.496;6.788;2024-02-14T08:34:23;11.20;1.00
11577;DHT22;5844;51.496;6.788;2024-02-14T08:36:50;11.30;1.00
11577;DHT22;5844;51.496;6.788;2024-02-14T08:39:16;11.30;1.00
11577;DHT22;5844;51.496;6.788;2024-02-14T08:41:44;11.30;1.00
11577;DHT22;5844;51.496;6.788;2024-02-14T08:44:10;11.30;1.00
11577;DHT22;5844;51.496;6.788;2024-02-14T08:46:36;11.30;1.00
11577;DHT22;5844;51.496;6.788;2024-02-14T08:49:01;11.30;1.00
11577;DHT22;5844;51.496;6.788;2024-02-14T08:51:37;11.40;1.00
11577;DHT22;5844;51.496;6.788;2024-02-14T08:54:04;11.40;1.00
11577;DHT22;5844;51.496;6.788;2024-02-14T08:56:32;11.40;1.00
11577;DHT22;5844;51.496;6.788;2024-02-14T08:59:00;11.40;1.00
11577;DHT22;5844;51.496;6.788;2024-02-14T09:01:30;11.40;1.00
11577;DHT22;5844;51.496;6.788;2024-02-14T09:03:56;11.40;1.00
11577;DHT22;5844;51.496;6.788;2024-02-14T09:06:22;11.40;1.00
11577;DHT22;5844;51.496;6.788;2024-02-14T09:08:48;11.40;1.00
11577;DHT22;5844;51.496;6.788;2024-02-14T09:11:16;11.40;1.00
11577;DHT22;5844;51.496;6.788;2024-02-14T09:13:41;11.30;1.00
11577;DHT22;5844;51.496;6.788;2024-02-14T09:16:10;11.10;1.00
11577;DHT22;5844;51.496;6.788;2024-02-14T09:18:37;11.00;1.00
11577;DHT22;5844;51.496;6.788;2024-02-14T09:21:02;11.00;1.00
11577;DHT22;5844;51.496;6.788;2024-02-14T09:23:31;11.00;1.00
11577;DHT22;5844;51.496;6.788;2024-02-14T09:25:58;10.90;1.00
11577;DHT22;5844;51.496;6.788;2024-02-14T09:28:23;10.90;1.00
11577;DHT22;5844;51.496;6.788;2024-02-14T09:30:50;10.90;1.00
11577;DHT22;5844;51.496;6.788;2024-02-14T09:33:16;11.00;1.00
11577;DHT22;5844;51.496;6.788;2024-02-14T09:35:41;11.10;1.00
11577;DHT22;5844;51.496;6.788;2024-02-14T09:38:12;11.00;1.00
11577;DHT22;5844;51.496;6.788;2024-02-14T09:40:40;11.10;1.00
11577;DHT22;5844;51.496;6.788;2024-02-14T09:43:22;11.10;1.00
11577;DHT22;5844;51.496;6.788;2024-02-14T09:45:51;11.10;1.00
11577;DHT22;5844;51.496;6.788;2024-02-14T09:48:19;11.20;1.00
11577;DHT22;5844;51.496;6.788;2024-02-14T09:50:45;11.30;1.00
11577;DHT22;5844;51.496;6.788;2024-02-14T09:53:12;11.30;1.00
11577;DHT22;5844;51.496;6.788;2024-02-14T09:55:39;11.40;1.00
11577;DHT22;5844;51.496;6.788;2024-02-14T09:58:06;11.40;1.00
11577;DHT22;5844;51.496;6.788;2024-02-14T10:00:32;11.40;1.00
11577;DHT22;5844;51.496;6.788;2024-02-14T10:02:58;11.60;1.00
11577;DHT22;5844;51.496;6.788;2024-02-14T10:05:24;11.70;1.00
11577;DHT22;5844;51.496;6.788;2024-02-14T10:07:50;11.70;1.00
11577;DHT22;5844;51.496;6.788;2024-02-14T10:10:16;11.70;1.00
11577;DHT22;5844;51.496;6.788;2024-02-14T10:12:42;11.90;1.00
11577;DHT22;5844;51.496;6.788;2024-02-14T10:15:08;12.00;1.00
11577;DHT22;5844;51.496;6.788;2024-02-14T10:17:34;12.10;1.00
11577;DHT22;5844;51.496;6.788;2024-02-14T10:20:01;12.10;1.00
11577;DHT22;5844;51.496;6.788;2024-02-14T10:22:38;12.20;1.00
11577;DHT22;5844;51.496;6.788;2024-02-14T10:25:05;12.20;1.00
11577;DHT22;5844;51.496;6.788;2024-02-14T10:27:38;12.20;1.00
11577;DHT22;5844;51.496;6.788;2024-02-14T10:30:08;12.10;1.00
11577;DHT22;5844;51.496;6.788;2024-02-14T10:32:37;12.00;1.00
11577;DHT22;5844;51.496;6.788;2024-02-14T10:35:07;12.00;1.00
11577;DHT22;5844;51.496;6.788;2024-02-14T10:37:35;12.10;1.00
11577;DHT22;5844;51.496;6.788;2024-02-14T10:40:04;12.20;1.00
11577;DHT22;5844;51.496;6.788;2024-02-14T10:42:32;12.20;1.00
11577;DHT22;5844;51.496;6.788;2024-02-14T10:44:58;12.20;1.00
11577;DHT22;5844;51.496;6.788;2024-02-14T10:47:29;12.00;1.00
11577;DHT22;5844;51.496;6.788;2024-02-14T10:50:00;11.90;1.00
11577;DHT22;5844;51.496;6.788;2024-02-14T10:52:29;11.80;1.00
11577;DHT22;5844;51.496;6.788;2024-02-14T10:54:57;11.80;1.00
11577;DHT22;5844;51.496;6.788;2024-02-14T10:57:24;11.80;1.00
11577;DHT22;5844;51.496;6.788;2024-02-14T10:59:50;11.90;1.00
11577;DHT22;5844;51.496;6.788;2024-02-14T11:02:17;11.90;1.00
11577;DHT22;5844;51.496;6.788;2024-02-14T11:04:43;12.00;1.00
11577;DHT22;5844;51.496;6.788;2024-02-14T11:07:09;12.20;1.00
11577;DHT22;5844;51.496;6.788;2024-02-14T11:09:38;12.10;1.00
11577;DHT22;5844;51.496;6.788;2024-02-14T11:12:10;12.20;1.00
11577;DHT22;5844;51.496;6.788;2024-02-14T11:14:36;12.30;1.00
11577;DHT22;5844;51.496;6.788;2024-02-14T11:17:10;12.40;1.00
11577;DHT22;5844;51.496;6.788;2024-02-14T11:19:37;12.30;1.00
11577;DHT22;5844;51.496;6.788;2024-02-14T11:22:17;12.40;1.00
11577;DHT22;5844;51.496;6.788;2024-02-14T11:24:46;12.50;1.00
11577;DHT22;5844;51.496;6.788;2024-02-14T11:27:17;12.60;1.00
11577;DHT22;5844;51.496;6.788;2024-02-14T11:29:52;12.70;1.00
11577;DHT22;5844;51.496;6.788;2024-02-14T11:32:18;12.80;1.00
11577;DHT22;5844;51.496;6.788;2024-02-14T11:34:53;12.90;1.00
11577;DHT22;5844;51.496;6.788;2024-02-14T11:37:19;13.00;1.00
11577;DHT22;5844;51.496;6.788;2024-02-14T11:39:46;13.00;1.00
11577;DHT22;5844;51.496;6.788;2024-02-14T11:42:12;13.10;1.00
11577;DHT22;5844;51.496;6.788;2024-02-14T11:44:40;13.20;1.00
11577;DHT22;5844;51.496;6.788;2024-02-14T11:47:09;13.20;1.00
11577;DHT22;5844;51.496;6.788;2024-02-14T11:49:36;13.20;1.00
11577;DHT22;5844;51.496;6.788;2024-02-14T11:52:02;13.30;1.00
11577;DHT22;5844;51.496;6.788;2024-02-14T11:54:29;13.40;1.00
11577;DHT22;5844;51.496;6.788;2024-02-14T11:56:55;13.40;1.00
11577;DHT22;5844;51.496;6.788;2024-02-14T11:59:21;13.50;1.00
11577;DHT22;5844;51.496;6.788;2024-02-14T12:01:48;13.70;1.00
11577;DHT22;5844;51.496;6.788;2024-02-14T12:04:17;13.70;1.00
11577;DHT22;5844;51.496;6.788;2024-02-14T12:06:43;13.80;1.00
11577;DHT22;5844;51.496;6.788;2024-02-14T12:09:09;13.80;1.00
11577;DHT22;5844;51.496;6.788;2024-02-14T12:11:38;13.70;1.00
11577;DHT22;5844;51.496;6.788;2024-02-14T12:14:08;13.70;1.00
11577;DHT22;5844;51.496;6.788;2024-02-14T12:16:35;13.60;1.00
11577;DHT22;5844;51.496;6.788;2024-02-14T12:19:06;13.40;1.00
11577;DHT22;5844;51.496;6.788;2024-02-14T12:21:39;13.20;1.00
11577;DHT22;5844;51.496;6.788;2024-02-14T12:26:30;13.20;1.00
11577;DHT22;5844;51.496;6.788;2024-02-14T12:28:57;13.20;1.00
11577;DHT22;5844;51.496;6.788;2024-02-14T12:31:24;13.20;1.00
11577;DHT22;5844;51.496;6.788;2024-02-14T12:33:50;13.20;1.00
11577;DHT22;5844;51.496;6.788;2024-02-14T12:36:18;13.30;1.00
11577;DHT22;5844;51.496;6.788;2024-02-14T12:38:43;13.30;1.00
11577;DHT22;5844;51.496;6.788;2024-02-14T12:41:10;13.40;1.00
11577;DHT22;5844;51.496;6.788;2024-02-14T12:43:35;13.40;1.00
11577;DHT22;5844;51.496;6.788;2024-02-14T12:46:01;13.40;1.00
11577;DHT22;5844;51.496;6.788;2024-02-14T12:48:29;13.20;1.00
11577;DHT22;5844;51.496;6.788;2024-02-14T12:50:55;13.10;1.00
11577;DHT22;5844;51.496;6.788;2024-02-14T12:53:22;13.10;1.00
11577;DHT22;5844;51.496;6.788;2024-02-14T12:55:48;13.00;1.00
11577;DHT22;5844;51.496;6.788;2024-02-14T12:58:14;13.10;1.00
11577;DHT22;5844;51.496;6.788;2024-02-14T13:00:40;13.20;1.00
11577;DHT22;5844;51.496;6.788;2024-02-14T13:03:06;13.20;1.00
11577;DHT22;5844;51.496;6.788;2024-02-14T13:05:31;13.10;1.00
11577;DHT22;5844;51.496;6.788;2024-02-14T13:07:57;13.00;1.00
11577;DHT22;5844;51.496;6.788;2024-02-14T13:10:23;13.10;1.00
11577;DHT22;5844;51.496;6.788;2024-02-14T13:12:48;13.10;1.00
11577;DHT22;5844;51.496;6.788;2024-02-14T13:15:15;13.20;1.00
11577;DHT22;5844;51.496;6.788;2024-02-14T13:17:41;13.20;1.00
11577;DHT22;5844;51.496;6.788;2024-02-14T13:20:07;13.20;1.00
11577;DHT22;5844;51.496;6.788;2024-02-14T13:22:33;13.10;1.00
11577;DHT22;5844;51.496;6.788;2024-02-14T13:24:59;13.20;1.00
11577;DHT22;5844;51.496;6.788;2024-02-14T13:27:28;13.20;1.00
11577;DHT22;5844;51.496;6.788;2024-02-14T13:29:53;13.10;1.00
11577;DHT22;5844;51.496;6.788;2024-02-14T13:32:19;13.20;1.00
11577;DHT22;5844;51.496;6.788;2024-02-14T13:34:47;13.20;1.00
11577;DHT22;5844;51.496;6.788;2024-02-14T13:37:14;13.20;1.00
11577;DHT22;5844;51.496;6.788;2024-02-14T13:39:41;13.10;1.00
11577;DHT22;5844;51.496;6.788;2024-02-14T13:42:06;13.20;1.00
11577;DHT22;5844;51.496;6.788;2024-02-14T13:44:33;13.20;1.00
11577;DHT22;5844;51.496;6.788;2024-02-14T13:46:59;13.10;1.00
11577;DHT22;5844;51.496;6.788;2024-02-14T13:49:25;12.90;1.00
11577;DHT22;5844;51.496;6.788;2024-02-14T13:51:52;12.80;1.00
11577;DHT22;5844;51.496;6.788;2024-02-14T13:54:18;12.70;1.00
11577;DHT22;5844;51.496;6.788;2024-02-14T13:56:44;12.60;1.00
11577;DHT22;5844;51.496;6.788;2024-02-14T13:59:10;12.50;1.00
11577;DHT22;5844;51.496;6.788;2024-02-14T14:01:36;12.50;1.00
11577;DHT22;5844;51.496;6.788;2024-02-14T14:04:02;12.50;1.00
11577;DHT22;5844;51.496;6.788;2024-02-14T14:06:29;12.40;1.00
11577;DHT22;5844;51.496;6.788;2024-02-14T14:08:55;12.40;1.00
11577;DHT22;5844;51.496;6.788;2024-02-14T14:11:21;12.40;1.00
11577;DHT22;5844;51.496;6.788;2024-02-14T14:13:46;12.40;1.00
11577;DHT22;5844;51.496;6.788;2024-02-14T14:16:14;12.40;1.00
11577;DHT22;5844;51.496;6.788;2024-02-14T14:18:40;12.30;1.00
11577;DHT22;5844;51.496;6.788;2024-02-14T14:21:06;12.30;1.00
11577;DHT22;5844;51.496;6.788;2024-02-14T14:23:32;12.20;1.00
11577;DHT22;5844;51.496;6.788;2024-02-14T14:25:58;12.20;2.40
11577;DHT22;5844;51.496;6.788;2024-02-14T14:28:24;12.20;5.30
11577;DHT22;5844;51.496;6.788;2024-02-14T14:30:56;12.20;8.40
11577;DHT22;5844;51.496;6.788;2024-02-14T14:33:26;12.10;14.20
11577;DHT22;5844;51.496;6.788;2024-02-14T14:35:52;12.10;13.00
11577;DHT22;5844;51.496;6.788;2024-02-14T14:38:19;12.00;15.70
11577;DHT22;5844;51.496;6.788;2024-02-14T14:40:45;12.00;19.60
11577;DHT22;5844;51.496;6.788;2024-02-14T14:43:12;12.00;23.80
11577;DHT22;5844;51.496;6.788;2024-02-14T14:45:38;12.10;26.00
11577;DHT22;5844;51.496;6.788;2024-02-14T14:48:07;12.00;27.00
11577;DHT22;5844;51.496;6.788;2024-02-14T14:50:34;12.00;29.00
11577;DHT22;5844;51.496;6.788;2024-02-14T14:53:00;12.00;30.60
11577;DHT22;5844;51.496;6.788;2024-02-14T14:55:39;12.10;33.10
11577;DHT22;5844;51.496;6.788;2024-02-14T14:58:13;12.00;36.10
11577;DHT22;5844;51.496;6.788;2024-02-14T15:00:39;12.00;40.50
11577;DHT22;5844;51.496;6.788;2024-02-14T15:03:05;12.00;42.30
11577;DHT22;5844;51.496;6.788;2024-02-14T15:05:30;12.00;43.90
11577;DHT22;5844;51.496;6.788;2024-02-14T15:07:56;12.00;46.00
11577;DHT22;5844;51.496;6.788;2024-02-14T15:10:22;12.00;48.30
11577;DHT22;5844;51.496;6.788;2024-02-14T15:12:48;12.00;47.90
11577;DHT22;5844;51.496;6.788;2024-02-14T15:15:14;12.00;48.60
11577;DHT22;5844;51.496;6.788;2024-02-14T15:17:40;12.00;52.20
11577;DHT22;5844;51.496;6.788;2024-02-14T15:20:06;12.00;52.70
11577;DHT22;5844;51.496;6.788;2024-02-14T15:22:32;12.00;52.60
11577;DHT22;5844;51.496;6.788;2024-02-14T15:24:58;12.00;52.00
11577;DHT22;5844;51.496;6.788;2024-02-14T15:27:23;12.00;54.80
11577;DHT22;5844;51.496;6.788;2024-02-14T15:29:52;12.00;52.60
11577;DHT22;5844;51.496;6.788;2024-02-14T15:32:36;12.00;52.30
11577;DHT22;5844;51.496;6.788;2024-02-14T15:35:20;12.00;53.40
11577;DHT22;5844;51.496;6.788;2024-02-14T15:37:46;12.00;52.50
11577;DHT22;5844;51.496;6.788;2024-02-14T15:40:17;12.00;54.30
11577;DHT22;5844;51.496;6.788;2024-02-14T15:42:43;12.00;54.00
11577;DHT22;5844;51.496;6.788;2024-02-14T15:45:09;12.00;52.40
11577;DHT22;5844;51.496;6.788;2024-02-14T15:47:43;12.00;53.50
11577;DHT22;5844;51.496;6.788;2024-02-14T15:50:10;12.00;50.00
11577;DHT22;5844;51.496;6.788;2024-02-14T15:52:35;12.10;48.70
11577;DHT22;5844;51.496;6.788;2024-02-14T15:55:01;12.10;48.80
11577;DHT22;5844;51.496;6.788;2024-02-14T15:57:26;12.10;49.20
11577;DHT22;5844;51.496;6.788;2024-02-14T15:59:52;12.10;48.40
11577;DHT22;5844;51.496;6.788;2024-02-14T16:02:18;12.10;47.80
11577;DHT22;5844;51.496;6.788;2024-02-14T16:04:43;12.10;47.00